Bethel, OK

4:09 AM CST on December 19, 2014 (GMT -0600)
Helms Sevier County | Change Station
CLOSE
Current Station
Airport
Location: De Queen,
Elevation: 354 ft
Nearby Weather Stations

Elev 354 ft 34.05 °N, 94.40 °W | Updated 16 minutes ago

Overcast
Overcast
44 °F
Feels Like 42 °F
N
5
Wind Variable Wind from East

Today
High -- | Low -- °F
--% Chance of Precip.
Yesterday
High -- | Low -- °F
Precip. -- in
7:20 AM 5:12 PM
Waning Crescent, 9% visible
Pressure 30.18 in
Visibility 5.0 miles
Clouds Overcast 600 ft
Windchill 42 °F
Dew Point 43 °F
Humidity 96%
Rainfall 0.00 in
Snow Depth Not available.
UV 0 out of 12
Pollen 4.40 out of 12
Air Quality Not available.
Flu Activity Not available.
METAR KDEQ 190953Z AUTO 09004KT 5SM BR OVC006 07/06 A3018 RMK AO2 SLP219 T00670061

More Conditions Fewer Conditions

Pressure 30.18 in
Visibility 5.0 miles
Clouds Overcast 600 ft
Windchill 42 °F
Dew Point 43 °F
Humidity 96%
Rainfall 0.00 in
Snow Depth Not available.
UV 0 out of 12
Pollen 4.40 out of 12
Air Quality Not available.
Flu Activity Not available.
METAR KDEQ 190953Z AUTO 09004KT 5SM BR OVC006 07/06 A3018 RMK AO2 SLP219 T00670061

More Conditions Fewer Conditions

10-Day Weather Forecast

Almanac

Astronomy

Dec. 19, 2014 Rise Set
Actual Time
Civil Twilight
Nautical Twilight
Astronomical Twilight
Moon
Length of Visible Light
Length of Day
Tomorrow will be .
, % of the Moon is Illuminated

Today's Extremes

State Highs State Lows

Community

WunderPhotos

Upload Photos

1,778,966 photos uploaded!

WunderBlogs® & News

Nearby

Air Quality

  Air Quality AQ Index Pollutant
Not available.

Snow Depth

Station Depth Elevation

Earthquake Activity

City Distance Mag. Time & Date
Minimum magnitude displayed is 2.5.

Coastal Water Temperatures

Place Temperature

Nearby Weather Stations